sensor_id;sensor_type;location;lat;lon;timestamp;pressure;altitude;pressure_sealevel;temperature;humidity
21879;BME280;27908;42.708;23.278;2023-09-19T00:00:20;49911.03;;;-136.69;61.09
21879;BME280;27908;42.708;23.278;2023-09-19T00:02:52;49936.63;;;-136.69;61.48
21879;BME280;27908;42.708;23.278;2023-09-19T00:05:18;49916.94;;;-136.69;62.20
21879;BME280;27908;42.708;23.278;2023-09-19T00:07:44;49934.66;;;-136.69;62.01
21879;BME280;27908;42.708;23.278;2023-09-19T00:10:10;49954.34;;;-136.69;62.08
21879;BME280;27908;42.708;23.278;2023-09-19T00:12:35;49938.59;;;-136.69;62.07
21879;BME280;27908;42.708;23.278;2023-09-19T00:15:01;49948.44;;;-136.69;62.48
21879;BME280;27908;42.708;23.278;2023-09-19T00:17:30;49920.88;;;-136.69;63.25
21879;BME280;27908;42.708;23.278;2023-09-19T00:19:57;49930.72;;;-136.69;62.42
21879;BME280;27908;42.708;23.278;2023-09-19T00:22:23;50017.34;;;-136.69;63.06
21879;BME280;27908;42.708;23.278;2023-09-19T00:24:51;49948.44;;;-136.69;63.14
21879;BME280;27908;42.708;23.278;2023-09-19T00:27:17;49956.31;;;-136.69;63.01
21879;BME280;27908;42.708;23.278;2023-09-19T00:29:43;49918.91;;;-136.69;63.35
21879;BME280;27908;42.708;23.278;2023-09-19T00:32:09;49936.63;;;-136.69;63.27
21879;BME280;27908;42.708;23.278;2023-09-19T00:34:34;49920.88;;;-136.69;63.77
21879;BME280;27908;42.708;23.278;2023-09-19T00:37:00;49920.88;;;-136.69;63.52
21879;BME280;27908;42.708;23.278;2023-09-19T00:39:26;49932.69;;;-136.69;63.91
21879;BME280;27908;42.708;23.278;2023-09-19T00:41:56;49934.66;;;-136.69;64.47
21879;BME280;27908;42.708;23.278;2023-09-19T00:44:22;49956.31;;;-136.69;64.41
21879;BME280;27908;42.708;23.278;2023-09-19T00:46:49;49924.81;;;-136.69;64.65
21879;BME280;27908;42.708;23.278;2023-09-19T00:49:15;49922.84;;;-136.69;64.30
21879;BME280;27908;42.708;23.278;2023-09-19T00:51:42;49944.50;;;-136.69;64.82
21879;BME280;27908;42.708;23.278;2023-09-19T00:54:11;49944.50;;;-136.69;64.55
21879;BME280;27908;42.708;23.278;2023-09-19T00:56:38;49932.69;;;-136.69;64.22
21879;BME280;27908;42.708;23.278;2023-09-19T00:59:05;49914.97;;;-136.69;64.72
21879;BME280;27908;42.708;23.278;2023-09-19T01:01:31;49907.09;;;-136.69;65.36
21879;BME280;27908;42.708;23.278;2023-09-19T01:03:58;49938.59;;;-136.69;64.95
21879;BME280;27908;42.708;23.278;2023-09-19T01:06:23;49948.44;;;-136.69;65.56
21879;BME280;27908;42.708;23.278;2023-09-19T01:08:49;49972.06;;;-136.69;65.67
21879;BME280;27908;42.708;23.278;2023-09-19T01:11:21;49913.00;;;-136.69;65.59
21879;BME280;27908;42.708;23.278;2023-09-19T01:17:14;49934.66;;;-136.69;66.19
21879;BME280;27908;42.708;23.278;2023-09-19T01:25:40;49911.03;;;-136.69;66.65
21879;BME280;27908;42.708;23.278;2023-09-19T01:30:47;49938.59;;;-136.69;67.28
21879;BME280;27908;42.708;23.278;2023-09-19T01:33:12;49901.19;;;-136.69;66.92
21879;BME280;27908;42.708;23.278;2023-09-19T01:35:39;49889.38;;;-136.69;67.46
21879;BME280;27908;42.708;23.278;2023-09-19T01:38:08;49903.16;;;-136.69;67.04
21879;BME280;27908;42.708;23.278;2023-09-19T01:40:41;49924.81;;;-136.69;67.38
21879;BME280;27908;42.708;23.278;2023-09-19T01:43:26;49905.13;;;-136.69;67.54
21879;BME280;27908;42.708;23.278;2023-09-19T01:51:37;49869.69;;;-136.69;69.11
21879;BME280;27908;42.708;23.278;2023-09-19T01:54:12;49875.59;;;-136.69;70.36
21879;BME280;27908;42.708;23.278;2023-09-19T01:59:13;49840.16;;;-136.69;71.55
21879;BME280;27908;42.708;23.278;2023-09-19T02:01:42;49846.03;;;-136.69;72.84
21879;BME280;27908;42.708;23.278;2023-09-19T02:04:10;49842.13;;;-136.69;73.13
21879;BME280;27908;42.708;23.278;2023-09-19T02:06:39;49836.19;;;-136.69;73.94
21879;BME280;27908;42.708;23.278;2023-09-19T02:09:05;49867.72;;;-136.69;75.01
21879;BME280;27908;42.708;23.278;2023-09-19T02:11:31;49836.19;;;-136.69;75.62
21879;BME280;27908;42.708;23.278;2023-09-19T02:13:57;49830.28;;;-136.69;76.95
21879;BME280;27908;42.708;23.278;2023-09-19T02:16:22;49832.25;;;-136.69;77.60
21879;BME280;27908;42.708;23.278;2023-09-19T02:18:49;49820.44;;;-136.69;77.91
21879;BME280;27908;42.708;23.278;2023-09-19T02:21:18;49824.38;;;-136.69;78.69
21879;BME280;27908;42.708;23.278;2023-09-19T02:23:44;49830.28;;;-136.69;78.94
21879;BME280;27908;42.708;23.278;2023-09-19T02:26:12;49834.22;;;-136.69;79.38
21879;BME280;27908;42.708;23.278;2023-09-19T02:28:39;49814.53;;;-136.69;79.18
21879;BME280;27908;42.708;23.278;2023-09-19T02:31:05;49808.63;;;-136.69;79.95
21879;BME280;27908;42.708;23.278;2023-09-19T02:33:31;49812.56;;;-136.69;80.66
21879;BME280;27908;42.708;23.278;2023-09-19T02:35:58;49816.50;;;-136.69;80.80
21879;BME280;27908;42.708;23.278;2023-09-19T02:38:25;49824.38;;;-136.69;80.85
21879;BME280;27908;42.708;23.278;2023-09-19T02:40:54;49796.81;;;-136.69;81.17
21879;BME280;27908;42.708;23.278;2023-09-19T02:43:20;49810.59;;;-136.69;81.15
21879;BME280;27908;42.708;23.278;2023-09-19T02:45:46;49765.31;;;-136.69;81.30
21879;BME280;27908;42.708;23.278;2023-09-19T02:48:12;49818.47;;;-136.69;81.78
21879;BME280;27908;42.708;23.278;2023-09-19T02:50:37;49796.81;;;-136.69;81.86
21879;BME280;27908;42.708;23.278;2023-09-19T02:53:04;49775.16;;;-136.69;82.17
21879;BME280;27908;42.708;23.278;2023-09-19T02:55:30;49824.38;;;-136.69;82.12
21879;BME280;27908;42.708;23.278;2023-09-19T02:57:55;49798.78;;;-136.69;82.37
21879;BME280;27908;42.708;23.278;2023-09-19T03:00:21;49808.63;;;-136.69;82.26
21879;BME280;27908;42.708;23.278;2023-09-19T03:02:56;49785.00;;;-136.69;82.44
21879;BME280;27908;42.708;23.278;2023-09-19T03:05:23;49820.44;;;-136.69;82.09
21879;BME280;27908;42.708;23.278;2023-09-19T03:07:49;49808.63;;;-136.69;82.22
21879;BME280;27908;42.708;23.278;2023-09-19T03:10:19;49763.34;;;-136.69;82.36
21879;BME280;27908;42.708;23.278;2023-09-19T03:12:48;49804.69;;;-136.69;82.00
21879;BME280;27908;42.708;23.278;2023-09-19T03:15:14;49816.50;;;-136.69;82.37
21879;BME280;27908;42.708;23.278;2023-09-19T03:17:44;49781.06;;;-136.69;82.35
21879;BME280;27908;42.708;23.278;2023-09-19T03:20:10;49792.88;;;-136.69;82.76
21879;BME280;27908;42.708;23.278;2023-09-19T03:22:38;49792.88;;;-136.69;83.00
21879;BME280;27908;42.708;23.278;2023-09-19T03:25:05;49802.72;;;-136.69;83.69
21879;BME280;27908;42.708;23.278;2023-09-19T03:27:34;49781.06;;;-136.69;84.08
21879;BME280;27908;42.708;23.278;2023-09-19T03:30:00;49783.03;;;-136.69;84.72
21879;BME280;27908;42.708;23.278;2023-09-19T03:32:25;49804.69;;;-136.69;84.67
21879;BME280;27908;42.708;23.278;2023-09-19T03:34:51;49753.50;;;-136.69;84.83
21879;BME280;27908;42.708;23.278;2023-09-19T03:37:16;49788.94;;;-136.69;85.18
21879;BME280;27908;42.708;23.278;2023-09-19T03:39:42;49773.19;;;-136.69;85.29
21879;BME280;27908;42.708;23.278;2023-09-19T03:42:08;49792.88;;;-136.69;86.41
21879;BME280;27908;42.708;23.278;2023-09-19T03:44:33;49749.56;;;-136.69;86.75
21879;BME280;27908;42.708;23.278;2023-09-19T03:46:58;49796.81;;;-136.69;87.20
21879;BME280;27908;42.708;23.278;2023-09-19T03:49:24;49783.03;;;-136.69;86.76
21879;BME280;27908;42.708;23.278;2023-09-19T03:51:49;49755.47;;;-136.69;86.75
21879;BME280;27908;42.708;23.278;2023-09-19T03:54:15;49761.38;;;-136.69;86.69
21879;BME280;27908;42.708;23.278;2023-09-19T03:56:42;49887.41;;;-136.69;86.41
21879;BME280;27908;42.708;23.278;2023-09-19T03:59:09;49788.94;;;-136.69;86.48
21879;BME280;27908;42.708;23.278;2023-09-19T04:01:34;49771.22;;;-136.69;86.61
21879;BME280;27908;42.708;23.278;2023-09-19T04:04:00;49781.06;;;-136.69;86.79
21879;BME280;27908;42.708;23.278;2023-09-19T04:06:33;49790.91;;;-136.69;86.36
21879;BME280;27908;42.708;23.278;2023-09-19T04:09:00;49777.13;;;-136.69;86.27
21879;BME280;27908;42.708;23.278;2023-09-19T04:11:27;49792.88;;;-136.69;86.51
21879;BME280;27908;42.708;23.278;2023-09-19T04:13:52;49767.28;;;-136.69;86.42
21879;BME280;27908;42.708;23.278;2023-09-19T04:16:18;49781.06;;;-136.69;86.93
21879;BME280;27908;42.708;23.278;2023-09-19T04:18:43;49781.06;;;-136.69;86.33
21879;BME280;27908;42.708;23.278;2023-09-19T04:21:09;49757.44;;;-136.69;86.74
21879;BME280;27908;42.708;23.278;2023-09-19T04:23:34;49767.28;;;-136.69;85.78
21879;BME280;27908;42.708;23.278;2023-09-19T04:26:00;49786.97;;;-136.69;85.10
21879;BME280;27908;42.708;23.278;2023-09-19T04:28:25;49794.84;;;-136.69;85.28
21879;BME280;27908;42.708;23.278;2023-09-19T04:30:53;49788.94;;;-136.69;85.29
21879;BME280;27908;42.708;23.278;2023-09-19T04:33:18;49785.00;;;-136.69;85.74
21879;BME280;27908;42.708;23.278;2023-09-19T04:35:44;49769.25;;;-136.69;85.82
21879;BME280;27908;42.708;23.278;2023-09-19T04:38:10;49788.94;;;-136.69;84.82
21879;BME280;27908;42.708;23.278;2023-09-19T04:40:35;49826.34;;;-136.69;84.78
21879;BME280;27908;42.708;23.278;2023-09-19T04:43:01;49796.81;;;-136.69;83.80
21879;BME280;27908;42.708;23.278;2023-09-19T04:45:28;49814.53;;;-136.69;83.47
21879;BME280;27908;42.708;23.278;2023-09-19T04:47:54;49814.53;;;-136.69;83.05
21879;BME280;27908;42.708;23.278;2023-09-19T04:50:20;49796.81;;;-136.69;82.62
21879;BME280;27908;42.708;23.278;2023-09-19T04:52:53;49814.53;;;-136.69;82.29
21879;BME280;27908;42.708;23.278;2023-09-19T04:55:19;49820.44;;;-136.69;82.08
21879;BME280;27908;42.708;23.278;2023-09-19T04:57:49;49851.97;;;-136.69;81.91
21879;BME280;27908;42.708;23.278;2023-09-19T05:00:16;49816.50;;;-136.69;81.17
21879;BME280;27908;42.708;23.278;2023-09-19T05:02:45;49850.00;;;-136.69;80.73
21879;BME280;27908;42.708;23.278;2023-09-19T05:05:11;49826.34;;;-136.69;79.51
21879;BME280;27908;42.708;23.278;2023-09-19T05:07:41;49865.75;;;-136.69;78.75
21879;BME280;27908;42.708;23.278;2023-09-19T05:10:08;49851.97;;;-136.69;78.00
21879;BME280;27908;42.708;23.278;2023-09-19T05:12:34;49905.13;;;-136.69;77.64
21879;BME280;27908;42.708;23.278;2023-09-19T05:15:03;49920.88;;;-136.69;75.96
21879;BME280;27908;42.708;23.278;2023-09-19T05:17:30;49885.44;;;-136.69;75.62
21879;BME280;27908;42.708;23.278;2023-09-19T05:19:57;49893.31;;;-136.69;74.02
21879;BME280;27908;42.708;23.278;2023-09-19T05:22:50;49885.44;;;-136.69;73.08
21879;BME280;27908;42.708;23.278;2023-09-19T05:25:16;49918.91;;;-136.69;74.49
21879;BME280;27908;42.708;23.278;2023-09-19T05:27:45;49938.59;;;-136.69;71.40
21879;BME280;27908;42.708;23.278;2023-09-19T05:30:11;49885.44;;;-136.69;70.68
21879;BME280;27908;42.708;23.278;2023-09-19T05:32:39;49891.34;;;-136.69;70.02
21879;BME280;27908;42.708;23.278;2023-09-19T05:35:05;49932.69;;;-136.69;69.18
21879;BME280;27908;42.708;23.278;2023-09-19T05:37:34;49928.75;;;-136.69;69.41
21879;BME280;27908;42.708;23.278;2023-09-19T05:40:00;49942.53;;;-136.69;69.81
21879;BME280;27908;42.708;23.278;2023-09-19T05:42:27;49936.63;;;-136.69;69.63
21879;BME280;27908;42.708;23.278;2023-09-19T05:44:52;49952.38;;;-136.69;68.87
21879;BME280;27908;42.708;23.278;2023-09-19T05:47:17;49972.06;;;-136.69;67.12
21879;BME280;27908;42.708;23.278;2023-09-19T05:49:43;49970.09;;;-136.69;66.19
21879;BME280;27908;42.708;23.278;2023-09-19T05:52:09;49981.91;;;-136.69;64.38
21879;BME280;27908;42.708;23.278;2023-09-19T05:54:34;49985.84;;;-136.69;65.62
21879;BME280;27908;42.708;23.278;2023-09-19T05:57:00;50015.38;;;-136.69;63.15
21879;BME280;27908;42.708;23.278;2023-09-19T05:59:27;50015.38;;;-136.69;63.45
21879;BME280;27908;42.708;23.278;2023-09-19T06:01:52;49999.63;;;-136.69;61.39
21879;BME280;27908;42.708;23.278;2023-09-19T06:04:18;49999.63;;;-136.69;60.45
21879;BME280;27908;42.708;23.278;2023-09-19T06:06:45;50033.09;;;-136.69;59.80
21879;BME280;27908;42.708;23.278;2023-09-19T06:09:10;50019.31;;;-136.69;58.29
21879;BME280;27908;42.708;23.278;2023-09-19T06:11:36;50037.03;;;-136.69;58.12
21879;BME280;27908;42.708;23.278;2023-09-19T06:14:02;50074.44;;;-136.69;58.01
21879;BME280;27908;42.708;23.278;2023-09-19T06:16:29;50037.03;;;-136.69;58.07
21879;BME280;27908;42.708;23.278;2023-09-19T06:18:55;50060.66;;;-136.69;56.71
21879;BME280;27908;42.708;23.278;2023-09-19T06:21:24;50037.03;;;-136.69;55.72
21879;BME280;27908;42.708;23.278;2023-09-19T06:23:49;50086.25;;;-136.69;56.34
21879;BME280;27908;42.708;23.278;2023-09-19T06:26:15;50103.97;;;-136.69;55.44
21879;BME280;27908;42.708;23.278;2023-09-19T06:28:40;50094.13;;;-136.69;55.41
21879;BME280;27908;42.708;23.278;2023-09-19T06:31:08;50117.78;;;-136.69;54.93
21879;BME280;27908;42.708;23.278;2023-09-19T06:33:36;50129.59;;;-136.69;53.56
21879;BME280;27908;42.708;23.278;2023-09-19T06:36:05;50123.69;;;-136.69;52.64
21879;BME280;27908;42.708;23.278;2023-09-19T06:38:31;50141.41;;;-136.69;52.81
21879;BME280;27908;42.708;23.278;2023-09-19T06:41:18;50145.34;;;-136.69;51.98
21879;BME280;27908;42.708;23.278;2023-09-19T06:43:43;50113.84;;;-136.69;52.11
21879;BME280;27908;42.708;23.278;2023-09-19T06:46:09;50139.44;;;-136.69;51.48
21879;BME280;27908;42.708;23.278;2023-09-19T06:48:35;50119.75;;;-136.69;52.68
21879;BME280;27908;42.708;23.278;2023-09-19T06:51:01;50137.47;;;-136.69;52.37
21879;BME280;27908;42.708;23.278;2023-09-19T06:53:31;50168.97;;;-136.69;51.12
21879;BME280;27908;42.708;23.278;2023-09-19T06:55:57;50119.75;;;-136.69;51.27
21879;BME280;27908;42.708;23.278;2023-09-19T06:58:23;50131.56;;;-136.69;51.28
21879;BME280;27908;42.708;23.278;2023-09-19T07:00:48;50137.47;;;-136.69;51.17
21879;BME280;27908;42.708;23.278;2023-09-19T07:03:15;50174.88;;;-136.69;51.22
21879;BME280;27908;42.708;23.278;2023-09-19T07:05:48;50194.56;;;-136.69;51.20
21879;BME280;27908;42.708;23.278;2023-09-19T07:08:13;50194.56;;;-136.69;50.35
21879;BME280;27908;42.708;23.278;2023-09-19T07:10:41;50182.75;;;-136.69;50.48
21879;BME280;27908;42.708;23.278;2023-09-19T07:13:14;50206.38;;;-136.69;49.92
21879;BME280;27908;42.708;23.278;2023-09-19T07:15:42;50214.25;;;-136.69;49.45
21879;BME280;27908;42.708;23.278;2023-09-19T07:18:15;50176.84;;;-136.69;49.35
21879;BME280;27908;42.708;23.278;2023-09-19T07:20:45;50206.38;;;-136.69;49.35
21879;BME280;27908;42.708;23.278;2023-09-19T07:23:21;50174.88;;;-136.69;49.53
21879;BME280;27908;42.708;23.278;2023-09-19T07:25:48;50182.75;;;-136.69;49.31
21879;BME280;27908;42.708;23.278;2023-09-19T07:28:14;50190.63;;;-136.69;49.38
21879;BME280;27908;42.708;23.278;2023-09-19T07:30:39;50178.81;;;-136.69;49.21
21879;BME280;27908;42.708;23.278;2023-09-19T07:33:07;50188.66;;;-136.69;48.60
21879;BME280;27908;42.708;23.278;2023-09-19T07:35:33;50239.84;;;-136.69;48.34
21879;BME280;27908;42.708;23.278;2023-09-19T07:37:59;50220.16;;;-136.69;48.43
21879;BME280;27908;42.708;23.278;2023-09-19T07:40:27;50239.84;;;-136.69;48.39
21879;BME280;27908;42.708;23.278;2023-09-19T07:42:56;50233.94;;;-136.69;48.33
21879;BME280;27908;42.708;23.278;2023-09-19T07:45:22;50226.06;;;-136.69;47.96
21879;BME280;27908;42.708;23.278;2023-09-19T07:47:50;50237.88;;;-136.69;47.49
21879;BME280;27908;42.708;23.278;2023-09-19T07:50:17;50245.75;;;-136.69;47.11
21879;BME280;27908;42.708;23.278;2023-09-19T07:52:50;50267.41;;;-136.69;46.82
21879;BME280;27908;42.708;23.278;2023-09-19T07:55:20;50269.38;;;-136.69;46.89
21879;BME280;27908;42.708;23.278;2023-09-19T07:57:49;50251.66;;;-136.69;47.29
21879;BME280;27908;42.708;23.278;2023-09-19T08:00:15;50226.06;;;-136.69;47.47
21879;BME280;27908;42.708;23.278;2023-09-19T08:02:41;50212.28;;;-136.69;47.04
21879;BME280;27908;42.708;23.278;2023-09-19T08:05:11;50235.91;;;-136.69;47.50
21879;BME280;27908;42.708;23.278;2023-09-19T08:07:38;50267.41;;;-136.69;47.30
21879;BME280;27908;42.708;23.278;2023-09-19T08:10:05;50277.25;;;-136.69;47.44
21879;BME280;27908;42.708;23.278;2023-09-19T08:12:41;50231.97;;;-136.69;46.56
21879;BME280;27908;42.708;23.278;2023-09-19T08:15:20;50257.56;;;-136.69;47.09
21879;BME280;27908;42.708;23.278;2023-09-19T08:17:46;50257.56;;;-136.69;46.39
21879;BME280;27908;42.708;23.278;2023-09-19T08:20:13;50235.91;;;-136.69;46.53
21879;BME280;27908;42.708;23.278;2023-09-19T08:22:49;50222.13;;;-136.69;46.45
21879;BME280;27908;42.708;23.278;2023-09-19T08:25:18;50283.16;;;-136.69;46.04
21879;BME280;27908;42.708;23.278;2023-09-19T08:27:47;50275.28;;;-136.69;45.98
21879;BME280;27908;42.708;23.278;2023-09-19T08:30:19;50338.31;;;-136.69;45.09
21879;BME280;27908;42.708;23.278;2023-09-19T08:32:49;50330.44;;;-136.69;45.38
21879;BME280;27908;42.708;23.278;2023-09-19T08:35:15;50304.84;;;-136.69;44.96
21879;BME280;27908;42.708;23.278;2023-09-19T08:37:41;50397.38;;;-136.69;44.24
21879;BME280;27908;42.708;23.278;2023-09-19T08:40:08;50342.25;;;-136.69;43.99
21879;BME280;27908;42.708;23.278;2023-09-19T08:42:51;50367.84;;;-136.69;43.34
21879;BME280;27908;42.708;23.278;2023-09-19T08:45:19;50424.94;;;-136.69;44.04
21879;BME280;27908;42.708;23.278;2023-09-19T08:48:04;50367.84;;;-136.69;44.48
21879;BME280;27908;42.708;23.278;2023-09-19T08:50:43;50338.31;;;-136.69;43.27
21879;BME280;27908;42.708;23.278;2023-09-19T08:53:16;50356.03;;;-136.69;43.36
21879;BME280;27908;42.708;23.278;2023-09-19T08:55:46;50340.28;;;-136.69;43.78
21879;BME280;27908;42.708;23.278;2023-09-19T08:58:16;50367.84;;;-136.69;43.33
21879;BME280;27908;42.708;23.278;2023-09-19T09:00:47;50346.19;;;-136.69;43.16
21879;BME280;27908;42.708;23.278;2023-09-19T09:03:15;50363.91;;;-136.69;43.26
21879;BME280;27908;42.708;23.278;2023-09-19T09:05:44;50350.13;;;-136.69;43.44
21879;BME280;27908;42.708;23.278;2023-09-19T09:08:12;50401.31;;;-136.69;42.44
21879;BME280;27908;42.708;23.278;2023-09-19T09:10:38;50407.22;;;-136.69;42.74
21879;BME280;27908;42.708;23.278;2023-09-19T09:13:06;50438.72;;;-136.69;42.91
21879;BME280;27908;42.708;23.278;2023-09-19T09:15:37;50464.34;;;-136.69;41.93
21879;BME280;27908;42.708;23.278;2023-09-19T09:18:03;50462.38;;;-136.69;40.78
21879;BME280;27908;42.708;23.278;2023-09-19T09:20:30;50511.59;;;-136.69;40.89
21879;BME280;27908;42.708;23.278;2023-09-19T09:22:57;50499.78;;;-136.69;41.22
21879;BME280;27908;42.708;23.278;2023-09-19T09:25:47;50487.97;;;-136.69;40.23
21879;BME280;27908;42.708;23.278;2023-09-19T09:28:19;50484.03;;;-136.69;40.00
21879;BME280;27908;42.708;23.278;2023-09-19T09:30:46;50486.00;;;-136.69;40.46
21879;BME280;27908;42.708;23.278;2023-09-19T09:33:13;50515.53;;;-136.69;40.63
21879;BME280;27908;42.708;23.278;2023-09-19T09:35:51;50529.31;;;-136.69;40.83
21879;BME280;27908;42.708;23.278;2023-09-19T09:38:23;50558.84;;;-136.69;40.15
21879;BME280;27908;42.708;23.278;2023-09-19T09:40:54;50545.06;;;-136.69;40.00
21879;BME280;27908;42.708;23.278;2023-09-19T09:43:36;50610.06;;;-136.69;39.16
21879;BME280;27908;42.708;23.278;2023-09-19T09:46:15;50582.50;;;-136.69;37.49
21879;BME280;27908;42.708;23.278;2023-09-19T09:48:56;50625.81;;;-136.69;37.26
21879;BME280;27908;42.708;23.278;2023-09-19T09:55:02;50576.59;;;-136.69;36.85
21879;BME280;27908;42.708;23.278;2023-09-19T09:57:30;50598.25;;;-136.69;37.46
21879;BME280;27908;42.708;23.278;2023-09-19T09:59:57;50598.25;;;-136.69;37.22
21879;BME280;27908;42.708;23.278;2023-09-19T10:02:28;50675.03;;;-136.69;37.05
21879;BME280;27908;42.708;23.278;2023-09-19T10:04:56;50623.84;;;-136.69;37.23
21879;BME280;27908;42.708;23.278;2023-09-19T10:07:31;50653.38;;;-136.69;37.08
21879;BME280;27908;42.708;23.278;2023-09-19T10:09:59;50635.66;;;-136.69;37.05
21879;BME280;27908;42.708;23.278;2023-09-19T10:12:38;50655.34;;;-136.69;36.95
21879;BME280;27908;42.708;23.278;2023-09-19T10:15:04;50684.91;;;-136.69;36.36
21879;BME280;27908;42.708;23.278;2023-09-19T10:17:34;50671.09;;;-136.69;36.28
21879;BME280;27908;42.708;23.278;2023-09-19T10:20:01;50643.53;;;-136.69;36.61
21879;BME280;27908;42.708;23.278;2023-09-19T10:22:34;50673.06;;;-136.69;36.30
21879;BME280;27908;42.708;23.278;2023-09-19T10:25:04;50608.09;;;-136.69;36.32
21879;BME280;27908;42.708;23.278;2023-09-19T10:27:32;50684.91;;;-136.69;36.35
21879;BME280;27908;42.708;23.278;2023-09-19T10:30:05;50608.09;;;-136.69;36.39
21879;BME280;27908;42.708;23.278;2023-09-19T10:32:33;50655.34;;;-136.69;36.48
21879;BME280;27908;42.708;23.278;2023-09-19T10:35:01;50686.88;;;-136.69;36.78
21879;BME280;27908;42.708;23.278;2023-09-19T10:37:32;50690.81;;;-136.69;36.38
21879;BME280;27908;42.708;23.278;2023-09-19T10:39:59;50700.66;;;-136.69;35.43
21879;BME280;27908;42.708;23.278;2023-09-19T10:42:25;50698.69;;;-136.69;35.89
21879;BME280;27908;42.708;23.278;2023-09-19T10:44:54;50698.69;;;-136.69;35.74
21879;BME280;27908;42.708;23.278;2023-09-19T10:47:20;50663.22;;;-136.69;35.61
21879;BME280;27908;42.708;23.278;2023-09-19T10:49:49;50663.22;;;-136.69;36.00
21879;BME280;27908;42.708;23.278;2023-09-19T10:52:18;50696.72;;;-136.69;36.02
21879;BME280;27908;42.708;23.278;2023-09-19T10:54:48;50810.94;;;-136.69;35.68
21879;BME280;27908;42.708;23.278;2023-09-19T10:57:22;50728.22;;;-136.69;35.69
21879;BME280;27908;42.708;23.278;2023-09-19T11:00:08;50720.34;;;-136.69;34.29
21879;BME280;27908;42.708;23.278;2023-09-19T11:03:19;50759.72;;;-136.69;34.70
21879;BME280;27908;42.708;23.278;2023-09-19T11:06:20;50722.31;;;-136.69;34.68
21879;BME280;27908;42.708;23.278;2023-09-19T11:08:56;50747.91;;;-136.69;34.69
21879;BME280;27908;42.708;23.278;2023-09-19T11:11:46;50724.28;;;-136.69;34.38
21879;BME280;27908;42.708;23.278;2023-09-19T11:25:43;50726.25;;;-136.69;34.50
21879;BME280;27908;42.708;23.278;2023-09-19T11:28:28;50696.72;;;-136.69;34.58
21879;BME280;27908;42.708;23.278;2023-09-19T11:30:55;50686.88;;;-136.69;34.75
21879;BME280;27908;42.708;23.278;2023-09-19T11:33:29;50690.81;;;-136.69;34.77
21879;BME280;27908;42.708;23.278;2023-09-19T11:46:30;50838.50;;;-136.69;34.01
21879;BME280;27908;42.708;23.278;2023-09-19T11:49:05;50844.41;;;-136.69;33.48
21879;BME280;27908;42.708;23.278;2023-09-19T11:51:42;50868.03;;;-136.69;33.45
21879;BME280;27908;42.708;23.278;2023-09-19T11:54:12;50875.94;;;-136.69;33.17
21879;BME280;27908;42.708;23.278;2023-09-19T11:56:44;50836.53;;;-136.69;32.89
21879;BME280;27908;42.708;23.278;2023-09-19T11:59:11;50909.41;;;-136.69;33.40
21879;BME280;27908;42.708;23.278;2023-09-19T12:01:38;50907.44;;;-136.69;32.08
21879;BME280;27908;42.708;23.278;2023-09-19T12:04:11;50832.59;;;-136.69;33.13
21879;BME280;27908;42.708;23.278;2023-09-19T12:06:37;50852.28;;;-136.69;33.86
21879;BME280;27908;42.708;23.278;2023-09-19T12:09:12;50891.69;;;-136.69;33.09
21879;BME280;27908;42.708;23.278;2023-09-19T12:11:42;50919.25;;;-136.69;33.50
21879;BME280;27908;42.708;23.278;2023-09-19T12:14:09;50962.59;;;-136.69;33.60
21879;BME280;27908;42.708;23.278;2023-09-19T12:16:35;50968.50;;;-136.69;32.27
21879;BME280;27908;42.708;23.278;2023-09-19T12:19:18;50980.31;;;-136.69;31.97
21879;BME280;27908;42.708;23.278;2023-09-19T12:22:13;50962.59;;;-136.69;32.27
21879;BME280;27908;42.708;23.278;2023-09-19T12:24:39;51013.78;;;-136.69;32.12
21879;BME280;27908;42.708;23.278;2023-09-19T12:27:09;51096.50;;;-136.69;32.47
21879;BME280;27908;42.708;23.278;2023-09-19T12:29:47;51065.00;;;-136.69;31.51
21879;BME280;27908;42.708;23.278;2023-09-19T12:32:34;51031.50;;;-136.69;31.78
21879;BME280;27908;42.708;23.278;2023-09-19T12:35:00;51041.34;;;-136.69;30.97
21879;BME280;27908;42.708;23.278;2023-09-19T12:37:32;51063.03;;;-136.69;31.44
21879;BME280;27908;42.708;23.278;2023-09-19T12:40:09;51055.16;;;-136.69;31.53
21879;BME280;27908;42.708;23.278;2023-09-19T12:42:48;51065.00;;;-136.69;32.38
21879;BME280;27908;42.708;23.278;2023-09-19T12:45:15;51066.97;;;-136.69;30.53
21879;BME280;27908;42.708;23.278;2023-09-19T12:48:20;51076.81;;;-136.69;30.87
21879;BME280;27908;42.708;23.278;2023-09-19T12:51:06;51131.97;;;-136.69;30.72
21879;BME280;27908;42.708;23.278;2023-09-19T12:53:40;51147.72;;;-136.69;30.52
21879;BME280;27908;42.708;23.278;2023-09-19T12:56:06;51045.28;;;-136.69;30.66
21879;BME280;27908;42.708;23.278;2023-09-19T12:58:34;51092.56;;;-136.69;31.07
21879;BME280;27908;42.708;23.278;2023-09-19T13:01:00;51126.06;;;-136.69;31.18
21879;BME280;27908;42.708;23.278;2023-09-19T13:03:27;51169.38;;;-136.69;30.57
21879;BME280;27908;42.708;23.278;2023-09-19T13:06:02;51126.06;;;-136.69;30.77
21879;BME280;27908;42.708;23.278;2023-09-19T13:08:34;51137.88;;;-136.69;30.89
21879;BME280;27908;42.708;23.278;2023-09-19T13:11:07;51139.84;;;-136.69;30.29
21879;BME280;27908;42.708;23.278;2023-09-19T13:13:43;51165.44;;;-136.69;30.49
21879;BME280;27908;42.708;23.278;2023-09-19T13:16:15;51149.69;;;-136.69;30.08
21879;BME280;27908;42.708;23.278;2023-09-19T13:18:46;51145.75;;;-136.69;30.13
21879;BME280;27908;42.708;23.278;2023-09-19T13:21:13;51159.53;;;-136.69;30.28
21879;BME280;27908;42.708;23.278;2023-09-19T13:23:53;51155.59;;;-136.69;29.51
21879;BME280;27908;42.708;23.278;2023-09-19T13:26:26;51163.47;;;-136.69;29.76